Time;durP1;ratioP1;P1;durP2;ratioP2;P2;SDS_P1;SDS_P2;PMS_P1;PMS_P2;Temp;Humidity;BMP_temperature;BMP_pressure;BME280_temperature;BME280_humidity;BME280_pressure;Samples;Min_cycle;Max_cycle;Signal;HPM_P1;HPM_P2
2024/01/18 00:01:12;;;;;;;;;;;;;;;10.88;85.36;94584.13;5075862;28;920;-72
2024/01/18 00:03:44;;;;;;;;;;;;;;;10.92;85.15;94576.59;5075809;28;973;-71
2024/01/18 00:06:19;;;;;;;;;;;;;;;10.87;85.30;94577.13;5075118;28;988;-70
2024/01/18 00:08:53;;;;;;;;;;;;;;;10.90;85.21;94583.94;5074855;28;1945;-69
2024/01/18 00:11:27;;;;;;;;;;;;;;;10.90;85.26;94586.63;5075973;28;913;-69
2024/01/18 00:14:02;;;;;;;;;;;;;;;10.89;85.33;94572.44;5075833;28;1092;-69
2024/01/18 00:16:37;;;;;;;;;;;;;;;10.87;85.45;94568.25;5075758;28;1012;-58
2024/01/18 00:19:12;;;;;;;;;;;;;;;10.85;85.48;94570.28;5075610;28;1007;-75
2024/01/18 00:21:44;;;;;;;;;;;;;;;10.83;85.77;94566.94;5075514;28;972;-75
2024/01/18 00:24:18;;;;;;;;;;;;;;;10.82;85.84;94560.78;5075278;28;1121;-74
2024/01/18 00:26:50;;;;;;;;;;;;;;;10.77;86.26;94565.81;5075557;28;1576;-72
2024/01/18 00:29:24;;;;;;;;;;;;;;;10.78;86.30;94555.97;5075552;28;1910;-69
2024/01/18 00:31:59;;;;;;;;;;;;;;;10.74;86.71;94555.47;5075587;28;940;-70
2024/01/18 00:34:32;;;;;;;;;;;;;;;10.73;86.89;94553.81;5075327;28;1411;-58
2024/01/18 00:37:07;;;;;;;;;;;;;;;10.77;86.92;94551.63;5075244;28;929;-68
2024/01/18 00:39:41;;;;;;;;;;;;;;;10.77;87.02;94548.94;5075290;28;976;-67
2024/01/18 00:42:16;;;;;;;;;;;;;;;10.78;86.96;94553.28;5075086;28;940;-67
2024/01/18 00:44:49;;;;;;;;;;;;;;;10.71;87.54;94551.31;5075346;28;1004;-66
2024/01/18 00:47:23;;;;;;;;;;;;;;;10.68;87.97;94543.66;5075005;28;1000;-65
2024/01/18 00:49:57;;;;;;;;;;;;;;;10.67;88.21;94541.97;5074973;28;1027;-65
2024/01/18 00:52:32;;;;;;;;;;;;;;;10.65;88.65;94529.81;5069339;28;1208;-66
2024/01/18 00:55:07;;;;;;;;;;;;;;;10.62;89.06;94525.63;5054862;28;921;-65
2024/01/18 00:57:42;;;;;;;;;;;;;;;10.66;88.64;94518.09;5055219;28;969;-67
2024/01/18 01:00:16;;;;;;;;;;;;;;;10.67;88.57;94507.22;5054888;28;945;-67
2024/01/18 01:02:51;;;;;;;;;;;;;;;10.73;88.94;94509.19;5055096;28;941;-67
2024/01/18 01:05:26;;;;;;;;;;;;;;;10.72;88.81;94506.72;5054664;28;1011;-67
2024/01/18 01:08:00;;;;;;;;;;;;;;;10.71;89.01;94515.72;5054625;28;1902;-65
2024/01/18 01:10:35;;;;;;;;;;;;;;;10.74;88.72;94508.19;5054799;28;1016;-66
2024/01/18 01:13:09;;;;;;;;;;;;;;;10.64;89.53;94502.25;5054507;28;980;-65
2024/01/18 01:15:42;;;;;;;;;;;;;;;10.58;89.94;94497.59;5054778;28;1443;-66
2024/01/18 01:18:16;;;;;;;;;;;;;;;10.61;89.98;94491.91;5053662;28;937;-66
2024/01/18 01:20:50;;;;;;;;;;;;;;;10.66;89.89;94478.84;5054389;28;1134;-66
2024/01/18 01:23:25;;;;;;;;;;;;;;;10.61;90.09;94475.84;5054444;28;1252;-68
2024/01/18 01:26:01;;;;;;;;;;;;;;;10.64;89.79;94493.38;5054311;28;1007;-66
2024/01/18 01:28:35;;;;;;;;;;;;;;;10.65;89.81;94490.53;5054133;28;1910;-66
2024/01/18 01:31:09;;;;;;;;;;;;;;;10.69;89.84;94486.47;5054498;28;922;-66
2024/01/18 01:33:43;;;;;;;;;;;;;;;10.68;89.48;94484.84;5054181;28;1403;-66
2024/01/18 01:36:18;;;;;;;;;;;;;;;10.70;89.66;94498.03;5054311;28;989;-67
2024/01/18 01:38:52;;;;;;;;;;;;;;;10.70;89.59;94498.84;5054091;28;1795;-66
2024/01/18 01:41:26;;;;;;;;;;;;;;;10.75;89.39;94506.34;5053902;28;996;-66
2024/01/18 01:44:01;;;;;;;;;;;;;;;10.82;88.76;94511.81;5054266;28;1012;-66
2024/01/18 01:46:35;;;;;;;;;;;;;;;10.90;88.48;94519.75;5054172;28;945;-65
2024/01/18 01:49:09;;;;;;;;;;;;;;;10.97;86.08;94520.72;5053854;28;1906;-66
2024/01/18 01:51:48;;;;;;;;;;;;;;;10.85;85.43;94522.13;5053773;28;913;-66
2024/01/18 01:54:28;;;;;;;;;;;;;;;10.56;84.76;94512.97;5033781;28;1012;-66
2024/01/18 01:57:04;;;;;;;;;;;;;;;10.26;85.37;94512.78;5034116;28;1001;-66
2024/01/18 01:59:38;;;;;;;;;;;;;;;10.15;86.19;94499.81;5034018;28;962;-66
2024/01/18 02:02:13;;;;;;;;;;;;;;;10.09;85.38;94489.81;5033616;28;1004;-66
2024/01/18 02:04:44;;;;;;;;;;;;;;;10.01;85.83;94477.31;5033834;28;941;-66
2024/01/18 02:07:19;;;;;;;;;;;;;;;10.11;85.71;94469.94;5033550;28;1000;-67
2024/01/18 02:09:53;;;;;;;;;;;;;;;10.05;85.32;94481.31;5033446;28;1914;-67
2024/01/18 02:12:26;;;;;;;;;;;;;;;10.03;85.61;94475.31;5033591;28;1558;-66
2024/01/18 02:15:00;;;;;;;;;;;;;;;10.07;85.69;94483.81;5033553;28;949;-66
2024/01/18 02:17:35;;;;;;;;;;;;;;;9.84;85.67;94476.56;5033706;28;929;-66
2024/01/18 02:20:10;;;;;;;;;;;;;;;9.73;86.73;94479.59;5033431;28;978;-66
2024/01/18 02:22:44;;;;;;;;;;;;;;;9.71;86.87;94481.63;5032581;28;987;-67
2024/01/18 02:25:20;;;;;;;;;;;;;;;9.60;87.27;94473.97;5033096;28;1160;-66
2024/01/18 02:27:57;;;;;;;;;;;;;;;9.46;88.25;94460.34;5033665;28;1999;-66
2024/01/18 02:30:30;;;;;;;;;;;;;;;9.45;88.09;94466.69;5033005;28;992;-66
2024/01/18 02:33:04;;;;;;;;;;;;;;;9.37;89.12;94459.56;5033602;28;1013;-66
2024/01/18 02:35:38;;;;;;;;;;;;;;;9.40;88.94;94469.03;5033299;28;1007;-67
2024/01/18 02:38:13;;;;;;;;;;;;;;;9.37;89.00;94462.22;5033443;28;1005;-68
2024/01/18 02:40:47;;;;;;;;;;;;;;;9.46;88.05;94451.50;5033230;28;940;-68
2024/01/18 02:43:21;;;;;;;;;;;;;;;9.54;87.67;94446.16;5033158;28;969;-67
2024/01/18 02:45:56;;;;;;;;;;;;;;;9.49;88.37;94444.00;5033410;28;917;-68
2024/01/18 02:48:30;;;;;;;;;;;;;;;9.45;87.39;94439.19;5033324;28;1915;-68
2024/01/18 02:51:04;;;;;;;;;;;;;;;9.14;89.23;94437.25;5033118;28;937;-68
2024/01/18 02:53:39;;;;;;;;;;;;;;;9.18;88.78;94434.09;5047842;28;1212;-67
2024/01/18 02:56:13;;;;;;;;;;;;;;;9.25;88.76;94425.41;5053215;28;898;-67
2024/01/18 02:58:48;;;;;;;;;;;;;;;9.26;88.17;94416.38;5053231;28;1008;-68
2024/01/18 03:01:22;;;;;;;;;;;;;;;9.06;89.04;94405.28;5052844;28;997;-68
2024/01/18 03:03:56;;;;;;;;;;;;;;;8.98;89.88;94408.78;5053234;28;1012;-68
2024/01/18 03:06:31;;;;;;;;;;;;;;;8.98;89.65;94401.63;5052835;28;989;-68
2024/01/18 03:09:05;;;;;;;;;;;;;;;8.98;89.75;94401.63;5052702;28;1902;-68
2024/01/18 03:11:39;;;;;;;;;;;;;;;9.06;89.17;94391.94;5052856;28;1000;-68
2024/01/18 03:14:14;;;;;;;;;;;;;;;8.99;88.61;94408.63;5053001;28;957;-68
2024/01/18 03:16:48;;;;;;;;;;;;;;;8.81;88.85;94404.50;5052803;28;1008;-67
2024/01/18 03:19:22;;;;;;;;;;;;;;;8.79;89.72;94386.00;5052597;28;1879;-68
2024/01/18 03:21:57;;;;;;;;;;;;;;;8.90;89.69;94388.31;5053052;28;992;-68
2024/01/18 03:24:31;;;;;;;;;;;;;;;8.87;89.40;94387.81;5052651;28;1272;-67
2024/01/18 03:27:03;;;;;;;;;;;;;;;8.81;90.57;94385.84;5053288;28;933;-68
2024/01/18 03:29:38;;;;;;;;;;;;;;;8.57;91.02;94377.69;5052653;28;1909;-67
2024/01/18 03:32:12;;;;;;;;;;;;;;;8.69;91.64;94375.50;5052550;28;1207;-68
2024/01/18 03:34:42;;;;;;;;;;;;;;;8.86;91.01;94370.13;5052722;28;1657;-68
2024/01/18 03:37:17;;;;;;;;;;;;;;;8.66;90.44;94380.34;5052473;28;925;-67
2024/01/18 03:39:51;;;;;;;;;;;;;;;8.65;91.31;94376.84;5052636;28;1043;-68
2024/01/18 03:42:25;;;;;;;;;;;;;;;8.78;91.33;94369.19;5054882;28;933;-68
2024/01/18 03:45:01;;;;;;;;;;;;;;;8.84;91.43;94382.81;5056233;28;945;-67
2024/01/18 03:47:32;;;;;;;;;;;;;;;8.89;90.41;94386.63;5056351;28;1009;-65
2024/01/18 03:50:07;;;;;;;;;;;;;;;8.71;91.43;94384.16;5056415;28;925;-68
2024/01/18 03:52:41;;;;;;;;;;;;;;;8.79;91.29;94370.81;5062689;28;1153;-69
2024/01/18 03:55:15;;;;;;;;;;;;;;;8.77;88.73;94367.50;5076187;28;933;-67
2024/01/18 03:57:50;;;;;;;;;;;;;;;8.57;90.24;94371.50;5076184;28;1031;-68
2024/01/18 04:00:24;;;;;;;;;;;;;;;8.63;91.30;94380.66;5075934;28;1767;-67
2024/01/18 04:02:58;;;;;;;;;;;;;;;8.60;91.69;94380.00;5075853;28;992;-67
2024/01/18 04:05:33;;;;;;;;;;;;;;;8.42;92.22;94379.34;5076028;28;935;-68
2024/01/18 04:08:07;;;;;;;;;;;;;;;8.47;92.03;94389.53;5076063;28;1972;-65
2024/01/18 04:10:41;;;;;;;;;;;;;;;8.49;91.87;94374.19;5076096;28;914;-68
2024/01/18 04:13:16;;;;;;;;;;;;;;;8.40;91.18;94381.31;5075728;28;909;-69
2024/01/18 04:15:50;;;;;;;;;;;;;;;8.25;91.47;94375.81;5075626;28;977;-68
2024/01/18 04:18:23;;;;;;;;;;;;;;;8.27;92.12;94371.19;5075360;28;1615;-67
2024/01/18 04:20:58;;;;;;;;;;;;;;;8.20;91.85;94370.16;5075770;28;924;-64
2024/01/18 04:23:32;;;;;;;;;;;;;;;8.07;90.88;94372.50;5075530;28;1081;-64
2024/01/18 04:26:06;;;;;;;;;;;;;;;8.00;91.63;94366.97;5074666;28;941;-64
2024/01/18 04:28:41;;;;;;;;;;;;;;;7.99;92.92;94370.66;5075671;28;1934;-63
2024/01/18 04:31:15;;;;;;;;;;;;;;;7.88;92.82;94362.97;5075570;28;961;-66
2024/01/18 04:33:50;;;;;;;;;;;;;;;7.61;94.53;94370.25;5075447;28;1004;-64
2024/01/18 04:36:24;;;;;;;;;;;;;;;7.70;94.49;94371.94;5075567;28;927;-64
2024/01/18 04:38:58;;;;;;;;;;;;;;;7.73;95.03;94373.41;5075172;28;936;-63
2024/01/18 04:41:32;;;;;;;;;;;;;;;7.76;93.91;94376.59;5075338;28;1111;-65
2024/01/18 04:44:07;;;;;;;;;;;;;;;7.74;93.47;94391.91;5075147;28;988;-64
2024/01/18 04:46:41;;;;;;;;;;;;;;;7.80;93.06;94393.06;5074022;28;1179;-63
2024/01/18 04:49:15;;;;;;;;;;;;;;;7.85;94.85;94409.38;5074864;28;1996;-65
2024/01/18 04:51:50;;;;;;;;;;;;;;;8.05;94.35;94398.44;5057639;28;1062;-64
2024/01/18 04:54:24;;;;;;;;;;;;;;;8.09;95.43;94419.25;5035101;28;922;-66
2024/01/18 04:56:58;;;;;;;;;;;;;;;8.32;95.57;94414.09;5034999;28;1346;-66
2024/01/18 04:59:33;;;;;;;;;;;;;;;8.52;94.20;94417.31;5035147;28;1007;-67
2024/01/18 05:02:07;;;;;;;;;;;;;;;8.41;89.50;94420.28;5034919;28;1172;-67
2024/01/18 05:04:41;;;;;;;;;;;;;;;8.06;93.69;94418.72;5035077;28;1480;-67
2024/01/18 05:07:13;;;;;;;;;;;;;;;8.11;95.33;94413.75;5034578;28;1579;-68
2024/01/18 05:09:45;;;;;;;;;;;;;;;8.25;97.45;94433.56;5049049;28;1917;-68
2024/01/18 05:12:20;;;;;;;;;;;;;;;8.45;96.99;94426.97;5034591;28;1671;-68
2024/01/18 05:14:51;;;;;;;;;;;;;;;8.53;95.11;94428.81;5034849;28;1573;-68
2024/01/18 05:17:29;;;;;;;;;;;;;;;8.21;93.74;94427.75;5048908;28;1700;-67
2024/01/18 05:20:05;;;;;;;;;;;;;;;8.28;96.51;94423.44;5034765;28;1490;-68
2024/01/18 05:22:39;;;;;;;;;;;;;;;8.09;96.90;94426.41;5034180;28;1066;-68
2024/01/18 05:25:13;;;;;;;;;;;;;;;7.98;97.31;94425.69;5034074;28;1484;-68
2024/01/18 05:27:49;;;;;;;;;;;;;;;8.18;98.63;94420.09;5048752;28;1992;-68
2024/01/18 05:30:22;;;;;;;;;;;;;;;8.42;96.34;94421.97;5034778;28;1552;-68
2024/01/18 05:32:54;;;;;;;;;;;;;;;8.44;96.47;94422.63;5034538;28;1637;-66
2024/01/18 05:35:28;;;;;;;;;;;;;;;8.46;95.82;94423.31;5034028;28;1572;-68
2024/01/18 05:38:01;;;;;;;;;;;;;;;8.43;95.69;94430.81;5034299;28;1534;-69
2024/01/18 05:40:33;;;;;;;;;;;;;;;8.47;95.92;94432.13;5034278;28;1444;-68
2024/01/18 05:43:05;;;;;;;;;;;;;;;8.50;95.87;94429.97;5034312;28;1557;-68
2024/01/18 05:45:38;;;;;;;;;;;;;;;8.60;96.63;94424.47;5034413;28;1524;-68
2024/01/18 05:48:11;;;;;;;;;;;;;;;8.64;95.35;94417.00;5034003;28;1906;-68
2024/01/18 05:50:43;;;;;;;;;;;;;;;8.66;95.68;94430.97;5033954;28;1229;-68
2024/01/18 05:53:16;;;;;;;;;;;;;;;8.76;95.53;94424.50;5056693;28;1638;-67
2024/01/18 05:56:26;;;;;;;;;;;;;;;8.84;94.02;94433.47;5051138;28;988;-68
2024/01/18 05:58:59;;;;;;;;;;;;;;;8.74;94.24;94434.44;5051618;28;1569;-65
2024/01/18 06:01:34;;;;;;;;;;;;;;;8.55;95.49;94442.78;5051329;28;1071;-66
2024/01/18 06:04:06;;;;;;;;;;;;;;;8.63;97.14;94428.63;5051348;28;1429;-68
2024/01/18 06:06:39;;;;;;;;;;;;;;;8.54;95.51;94441.16;5035863;28;1516;-67
2024/01/18 06:09:16;;;;;;;;;;;;;;;8.35;97.11;94434.28;5050743;28;1997;-67
2024/01/18 06:11:49;;;;;;;;;;;;;;;8.42;98.73;94432.63;5051593;28;1468;-67
2024/01/18 06:14:24;;;;;;;;;;;;;;;8.64;98.03;94439.13;5064165;28;993;-67
2024/01/18 06:16:57;;;;;;;;;;;;;;;8.68;96.69;94432.47;5073410;28;1508;-67
2024/01/18 06:19:30;;;;;;;;;;;;;;;8.91;99.47;94431.78;5073990;28;1563;-66
2024/01/18 06:22:04;;;;;;;;;;;;;;;9.22;100.00;94418.59;5074234;28;1009;-67
2024/01/18 06:24:38;;;;;;;;;;;;;;;9.59;99.52;94422.44;5073508;28;1561;-68
2024/01/18 06:27:13;;;;;;;;;;;;;;;9.90;100.00;94424.31;5073904;28;903;-67
2024/01/18 06:29:45;;;;;;;;;;;;;;;10.12;98.62;94420.84;5074726;28;1999;-71
2024/01/18 06:32:17;;;;;;;;;;;;;;;10.30;97.41;94420.63;5074222;28;1432;-71
2024/01/18 06:34:49;;;;;;;;;;;;;;;10.58;96.10;94425.41;5073712;28;1570;-68
2024/01/18 06:37:22;;;;;;;;;;;;;;;10.72;94.45;94416.63;5073324;28;1452;-68
2024/01/18 06:39:54;;;;;;;;;;;;;;;10.79;94.58;94426.59;5073331;28;1665;-68
2024/01/18 06:42:26;;;;;;;;;;;;;;;10.86;93.95;94419.53;5073220;28;1553;-67
2024/01/18 06:44:58;;;;;;;;;;;;;;;10.93;93.61;94415.13;5073128;28;1616;-66
2024/01/18 06:47:30;;;;;;;;;;;;;;;10.97;93.15;94408.38;5073176;28;1561;-65
2024/01/18 06:50:05;;;;;;;;;;;;;;;11.00;93.53;94407.19;5071985;28;1984;-66
2024/01/18 06:52:37;;;;;;;;;;;;;;;11.07;93.21;94397.41;5066883;28;1447;-65
2024/01/18 06:55:09;;;;;;;;;;;;;;;11.07;93.83;94395.56;5053186;28;1574;-66
2024/01/18 06:57:49;;;;;;;;;;;;;;;11.01;95.52;94392.81;5053339;28;925;-65
2024/01/18 07:00:23;;;;;;;;;;;;;;;10.99;95.79;94371.59;5053734;28;1491;-65
2024/01/18 07:02:53;;;;;;;;;;;;;;;10.85;98.02;94351.84;5053465;28;1568;-67
2024/01/18 07:05:26;;;;;;;;;;;;;;;10.76;99.18;94326.19;5052991;28;1460;-65
2024/01/18 07:08:00;;;;;;;;;;;;;;;10.81;98.70;94315.75;5054727;28;1975;-65
2024/01/18 07:10:33;;;;;;;;;;;;;;;10.83;98.54;94321.78;5053566;28;1844;-68
2024/01/18 07:13:07;;;;;;;;;;;;;;;10.88;99.32;94313.19;5053283;28;1000;-65
2024/01/18 07:15:41;;;;;;;;;;;;;;;10.94;98.78;94355.25;5051368;28;1623;-63
2024/01/18 07:18:16;;;;;;;;;;;;;;;10.92;98.78;94360.78;5056301;28;945;-64
2024/01/18 07:20:51;;;;;;;;;;;;;;;11.03;97.96;94372.06;5057134;28;922;-65
2024/01/18 07:23:25;;;;;;;;;;;;;;;11.06;97.86;94379.69;5056484;28;2016;-65
2024/01/18 07:25:59;;;;;;;;;;;;;;;11.08;97.38;94381.19;5056710;28;1008;-65
2024/01/18 07:28:34;;;;;;;;;;;;;;;11.08;96.99;94370.50;5057079;28;1917;-65
2024/01/18 07:31:09;;;;;;;;;;;;;;;11.10;96.82;94370.31;5055526;28;945;-65
2024/01/18 07:33:43;;;;;;;;;;;;;;;11.13;96.57;94372.59;5056280;28;945;-65
2024/01/18 07:36:18;;;;;;;;;;;;;;;11.15;96.55;94378.59;5056680;28;977;-65
2024/01/18 07:38:49;;;;;;;;;;;;;;;11.19;96.25;94382.56;5056792;28;1487;-65
2024/01/18 07:41:24;;;;;;;;;;;;;;;11.24;95.75;94377.50;5056688;28;1023;-65
2024/01/18 07:43:58;;;;;;;;;;;;;;;11.28;95.50;94380.66;5056621;28;910;-65
2024/01/18 07:46:32;;;;;;;;;;;;;;;11.28;95.89;94368.09;5056416;28;984;-64
2024/01/18 07:49:06;;;;;;;;;;;;;;;11.22;96.74;94368.84;5056346;28;1991;-66
2024/01/18 07:51:41;;;;;;;;;;;;;;;11.31;96.22;94364.22;5056634;28;921;-65
2024/01/18 07:54:15;;;;;;;;;;;;;;;11.36;96.31;94347.59;5075767;28;1209;-65
2024/01/18 07:56:49;;;;;;;;;;;;;;;11.38;96.01;94334.88;5076442;28;921;-63
2024/01/18 07:59:21;;;;;;;;;;;;;;;11.47;95.93;94325.72;5076356;28;1019;-64
2024/01/18 08:01:54;;;;;;;;;;;;;;;11.55;95.40;94322.13;5076272;28;1501;-65
2024/01/18 08:04:29;;;;;;;;;;;;;;;11.52;95.74;94320.66;5075242;28;941;-64
2024/01/18 08:07:03;;;;;;;;;;;;;;;11.57;95.22;94328.94;5075005;28;948;-65
2024/01/18 08:09:38;;;;;;;;;;;;;;;11.60;94.83;94333.91;5075923;28;1978;-65
2024/01/18 08:12:12;;;;;;;;;;;;;;;11.70;94.76;94328.25;5075924;28;921;-65
2024/01/18 08:14:44;;;;;;;;;;;;;;;11.71;94.77;94329.94;5075772;28;1022;-64
2024/01/18 08:17:18;;;;;;;;;;;;;;;11.77;94.71;94326.50;5075890;28;944;-63
2024/01/18 08:19:53;;;;;;;;;;;;;;;11.84;94.24;94316.69;5075719;28;980;-64
2024/01/18 08:22:27;;;;;;;;;;;;;;;11.91;93.71;94303.41;5075508;28;988;-63
2024/01/18 08:25:02;;;;;;;;;;;;;;;12.00;93.08;94306.78;5075369;28;1121;-64
2024/01/18 08:27:39;;;;;;;;;;;;;;;11.97;93.48;94310.69;5075341;28;929;-64
2024/01/18 08:30:11;;;;;;;;;;;;;;;12.05;92.60;94299.84;5075081;28;1913;-63
2024/01/18 08:32:44;;;;;;;;;;;;;;;12.17;92.13;94302.84;5075372;28;1012;-64
2024/01/18 08:35:19;;;;;;;;;;;;;;;12.29;91.24;94295.97;5075265;28;932;-64
2024/01/18 08:37:53;;;;;;;;;;;;;;;12.43;90.48;94291.53;5075325;28;982;-63
2024/01/18 08:40:27;;;;;;;;;;;;;;;12.58;89.44;94291.44;5075392;28;961;-65
2024/01/18 08:43:02;;;;;;;;;;;;;;;12.47;89.83;94275.91;5075523;28;933;-64
2024/01/18 08:45:34;;;;;;;;;;;;;;;12.50;89.81;94275.50;5075345;28;1603;-64
2024/01/18 08:48:06;;;;;;;;;;;;;;;12.54;89.58;94278.59;5075050;28;1906;-64
2024/01/18 08:50:40;;;;;;;;;;;;;;;12.59;88.98;94277.00;5075342;28;1025;-64
2024/01/18 08:53:15;;;;;;;;;;;;;;;12.73;87.75;94298.56;5063707;28;1153;-62
2024/01/18 08:55:49;;;;;;;;;;;;;;;13.13;85.99;94296.97;5054979;28;953;-64
2024/01/18 08:58:23;;;;;;;;;;;;;;;13.39;83.92;94299.03;5055111;28;1551;-64
2024/01/18 09:00:57;;;;;;;;;;;;;;;13.38;83.96;94301.91;5055008;28;937;-63
2024/01/18 09:03:30;;;;;;;;;;;;;;;13.44;83.49;94272.38;5054631;28;984;-62
2024/01/18 09:06:05;;;;;;;;;;;;;;;13.65;81.75;94274.09;5055040;28;997;-62
2024/01/18 09:08:39;;;;;;;;;;;;;;;14.09;80.34;94284.56;5054513;28;1910;-60
2024/01/18 09:11:13;;;;;;;;;;;;;;;14.04;80.00;94272.56;5054527;28;985;-62
2024/01/18 09:13:47;;;;;;;;;;;;;;;13.72;80.93;94263.41;5054572;28;1306;-61
2024/01/18 09:16:21;;;;;;;;;;;;;;;14.03;80.13;94275.44;5054507;28;987;-61
2024/01/18 09:18:56;;;;;;;;;;;;;;;14.47;78.19;94268.66;5054660;28;1017;-62
2024/01/18 09:21:30;;;;;;;;;;;;;;;14.74;76.42;94239.09;5054702;28;941;-65
2024/01/18 09:24:04;;;;;;;;;;;;;;;15.03;75.54;94219.78;5054351;28;1082;-64
2024/01/18 09:26:36;;;;;;;;;;;;;;;15.14;74.34;94228.25;5054409;28;1482;-63
2024/01/18 09:29:11;;;;;;;;;;;;;;;15.35;73.83;94217.22;5054093;28;1906;-63
2024/01/18 09:31:44;;;;;;;;;;;;;;;15.30;72.73;94222.41;5054197;28;929;-69
2024/01/18 09:34:17;;;;;;;;;;;;;;;15.43;72.67;94230.44;5054154;28;1425;-70
2024/01/18 09:36:49;;;;;;;;;;;;;;;15.09;73.42;94226.19;5054313;28;1637;-68
2024/01/18 09:39:20;;;;;;;;;;;;;;;15.02;73.50;94217.31;5052405;28;1563;-64
2024/01/18 09:41:53;;;;;;;;;;;;;;;15.23;73.10;94216.22;5054166;28;1712;-64
2024/01/18 09:44:26;;;;;;;;;;;;;;;15.62;71.67;94207.13;5054105;28;1599;-64
2024/01/18 09:47:01;;;;;;;;;;;;;;;16.11;69.83;94174.31;5054128;28;1645;-67
2024/01/18 09:49:33;;;;;;;;;;;;;;;16.13;69.08;94185.72;5052593;28;1906;-72
2024/01/18 09:52:05;;;;;;;;;;;;;;;16.12;69.59;94171.38;5055237;28;1632;-70
2024/01/18 09:54:42;;;;;;;;;;;;;;;16.29;68.85;94163.56;5074042;28;1068;-71
2024/01/18 09:57:19;;;;;;;;;;;;;;;16.39;68.58;94161.22;5073893;28;1667;-68
2024/01/18 09:59:53;;;;;;;;;;;;;;;16.25;67.89;94177.72;5073824;28;1494;-60
2024/01/18 10:02:26;;;;;;;;;;;;;;;16.47;68.05;94173.59;5073714;28;1479;-68
2024/01/18 10:05:00;;;;;;;;;;;;;;;16.39;68.33;94176.59;5073560;28;1012;-67
2024/01/18 10:07:32;;;;;;;;;;;;;;;16.39;67.91;94171.19;5073777;28;1569;-59
2024/01/18 10:10:07;;;;;;;;;;;;;;;16.02;68.01;94164.84;5073435;28;1910;-64
2024/01/18 10:12:42;;;;;;;;;;;;;;;16.20;67.39;94152.25;5073528;28;973;-64
2024/01/18 10:15:35;;;;;;;;;;;;;;;16.65;66.15;94145.00;5073584;28;1591;-64
2024/01/18 10:18:05;;;;;;;;;;;;;;;16.93;64.30;94129.16;5073945;28;1538;-64
2024/01/18 10:20:38;;;;;;;;;;;;;;;17.12;63.67;94116.44;5073562;28;1721;-65
2024/01/18 10:23:12;;;;;;;;;;;;;;;16.86;64.06;94114.06;5073559;28;1566;-64
2024/01/18 10:25:44;;;;;;;;;;;;;;;16.90;63.88;94101.78;5073168;28;1539;-64
2024/01/18 10:28:16;;;;;;;;;;;;;;;16.50;65.30;94097.59;5073276;28;1918;-63
2024/01/18 10:30:52;;;;;;;;;;;;;;;16.57;65.37;94095.66;5073469;28;1566;-65
2024/01/18 10:33:25;;;;;;;;;;;;;;;16.36;65.61;94101.50;5073333;28;1690;-64
2024/01/18 10:35:57;;;;;;;;;;;;;;;16.50;65.44;94089.50;5073516;28;1699;-66
2024/01/18 10:38:29;;;;;;;;;;;;;;;16.75;64.80;94097.56;5073317;28;1486;-66
2024/01/18 10:41:02;;;;;;;;;;;;;;;17.24;63.51;94105.69;5073443;28;1485;-66
2024/01/18 10:43:35;;;;;;;;;;;;;;;17.61;61.47;94111.03;5073269;28;1556;-66
2024/01/18 10:46:07;;;;;;;;;;;;;;;17.63;60.94;94108.09;5073325;28;1485;-65
2024/01/18 10:48:47;;;;;;;;;;;;;;;18.01;59.78;94093.41;5073085;28;1918;-65
2024/01/18 10:51:19;;;;;;;;;;;;;;;18.19;58.33;94114.13;5077560;28;897;-64
2024/01/18 10:53:54;;;;;;;;;;;;;;;18.42;58.05;94100.63;5063569;28;1680;-64
2024/01/18 10:56:27;;;;;;;;;;;;;;;17.99;58.42;94093.66;5059871;28;1428;-65
2024/01/18 10:58:59;;;;;;;;;;;;;;;17.29;61.68;94076.13;5059817;28;1440;-62
2024/01/18 11:01:32;;;;;;;;;;;;;;;16.81;63.89;94070.69;5059762;28;1498;-63
2024/01/18 11:04:06;;;;;;;;;;;;;;;17.35;61.89;94066.28;5059755;28;1515;-63
2024/01/18 11:06:40;;;;;;;;;;;;;;;16.87;63.18;94081.47;5059860;28;1484;-62
2024/01/18 11:09:12;;;;;;;;;;;;;;;16.77;63.72;94097.34;5059456;28;1922;-63
2024/01/18 11:11:44;;;;;;;;;;;;;;;17.14;62.47;94094.63;5059683;28;1623;-63
2024/01/18 11:14:16;;;;;;;;;;;;;;;16.71;63.73;94088.28;5059611;28;1540;-63
2024/01/18 11:16:47;;;;;;;;;;;;;;;16.31;64.76;94068.97;5059652;28;1768;-63
2024/01/18 11:19:38;;;;;;;;;;;;;;;16.05;66.32;94067.34;5058470;28;1619;-62
2024/01/18 11:22:22;;;;;;;;;;;;;;;15.93;67.49;94061.84;5059530;28;1473;-62
2024/01/18 11:25:01;;;;;;;;;;;;;;;16.05;66.82;94056.56;5059301;28;2140;-62
2024/01/18 11:27:39;;;;;;;;;;;;;;;16.02;66.13;94057.84;5059409;28;1528;-62
2024/01/18 11:30:31;;;;;;;;;;;;;;;15.90;67.22;94056.91;5059608;28;1971;-62
2024/01/18 11:33:07;;;;;;;;;;;;;;;15.68;67.40;94045.66;5058486;28;1670;-62
2024/01/18 11:35:40;;;;;;;;;;;;;;;15.64;67.91;94052.53;5059575;28;1521;-62
2024/01/18 11:38:19;;;;;;;;;;;;;;;15.56;68.05;94050.94;5059513;28;1436;-63
2024/01/18 11:40:52;;;;;;;;;;;;;;;15.30;67.97;94054.63;5059614;28;1467;-62
2024/01/18 11:43:25;;;;;;;;;;;;;;;15.40;68.32;94047.72;5059464;28;1633;-62
2024/01/18 11:45:58;;;;;;;;;;;;;;;15.62;66.80;94041.97;5059441;28;1499;-62
2024/01/18 11:48:30;;;;;;;;;;;;;;;15.80;66.25;94041.22;5059027;28;1993;-61
2024/01/18 11:51:03;;;;;;;;;;;;;;;16.00;64.93;94049.97;5059320;28;1655;-60
2024/01/18 11:53:35;;;;;;;;;;;;;;;15.95;65.47;94030.09;5073283;28;1533;-62
2024/01/18 11:56:08;;;;;;;;;;;;;;;15.67;65.78;94034.06;5079305;28;1567;-61
2024/01/18 11:58:40;;;;;;;;;;;;;;;15.45;66.57;94020.13;5079332;28;1443;-61
2024/01/18 12:01:13;;;;;;;;;;;;;;;15.27;66.81;94010.13;5079181;28;1519;-60
2024/01/18 12:03:46;;;;;;;;;;;;;;;15.20;67.17;94001.25;5075077;28;1518;-61
2024/01/18 12:06:19;;;;;;;;;;;;;;;15.15;68.55;94003.78;5075905;28;1464;-61
2024/01/18 12:08:52;;;;;;;;;;;;;;;15.11;68.12;94005.25;5075768;28;1909;-61
2024/01/18 12:11:25;;;;;;;;;;;;;;;15.03;68.14;94009.03;5075994;28;1602;-61
2024/01/18 12:13:56;;;;;;;;;;;;;;;14.96;68.28;94002.84;5076017;28;1465;-61
2024/01/18 12:16:30;;;;;;;;;;;;;;;14.95;68.73;94002.03;5075844;28;1461;-61
2024/01/18 12:19:05;;;;;;;;;;;;;;;14.95;68.68;94006.56;5075891;28;1557;-62
2024/01/18 12:21:37;;;;;;;;;;;;;;;14.91;68.95;94006.22;5075972;28;1498;-61
2024/01/18 12:24:12;;;;;;;;;;;;;;;14.83;69.03;93998.38;5075664;28;1247;-61
2024/01/18 12:26:42;;;;;;;;;;;;;;;14.85;68.67;93993.59;5075604;28;1483;-61
2024/01/18 12:29:15;;;;;;;;;;;;;;;14.98;68.84;93995.38;5075315;28;1906;-61
2024/01/18 12:31:48;;;;;;;;;;;;;;;15.06;67.93;93988.91;5057935;28;1547;-61
2024/01/18 12:34:20;;;;;;;;;;;;;;;15.08;67.46;93998.44;5044974;28;1760;-62
2024/01/18 12:36:52;;;;;;;;;;;;;;;14.92;67.59;93982.81;5044092;28;1412;-61
2024/01/18 12:39:24;;;;;;;;;;;;;;;15.09;68.07;94005.47;5044636;28;1641;-62
2024/01/18 12:41:56;;;;;;;;;;;;;;;15.11;67.64;93997.19;5045754;28;1536;-61
2024/01/18 12:44:29;;;;;;;;;;;;;;;15.10;67.98;93999.06;5046071;28;1409;-61
2024/01/18 12:47:01;;;;;;;;;;;;;;;15.06;67.46;94007.75;5044761;28;1628;-61
2024/01/18 12:49:34;;;;;;;;;;;;;;;14.99;67.38;94014.00;5043961;28;2001;-62
2024/01/18 12:52:05;;;;;;;;;;;;;;;14.98;67.92;94016.91;5047476;28;1829;-61
2024/01/18 12:54:38;;;;;;;;;;;;;;;14.84;67.99;94018.88;5046141;28;1604;-61
2024/01/18 12:57:12;;;;;;;;;;;;;;;14.75;68.41;94010.19;5045519;28;1516;-62
2024/01/18 12:59:44;;;;;;;;;;;;;;;14.73;68.73;94012.28;5044360;28;1539;-61
2024/01/18 13:02:26;;;;;;;;;;;;;;;14.76;68.44;93984.13;5043513;28;1485;-62
2024/01/18 13:04:58;;;;;;;;;;;;;;;14.77;67.95;93989.28;5043701;28;1420;-61
2024/01/18 13:07:30;;;;;;;;;;;;;;;14.83;67.43;93975.00;5043561;28;1470;-61
2024/01/18 13:10:05;;;;;;;;;;;;;;;15.05;67.17;93987.28;5044622;28;1906;-61
2024/01/18 13:12:38;;;;;;;;;;;;;;;15.27;66.69;93980.50;5045420;28;1617;-61
2024/01/18 13:15:10;;;;;;;;;;;;;;;15.50;66.18;93985.28;5044223;28;1548;-61
2024/01/18 13:17:43;;;;;;;;;;;;;;;15.65;65.35;93966.09;5044619;28;1456;-61
2024/01/18 13:20:15;;;;;;;;;;;;;;;15.80;64.46;93963.91;5042613;28;1476;-62
2024/01/18 13:22:46;;;;;;;;;;;;;;;15.75;64.42;93966.44;5044556;28;1496;-61
2024/01/18 13:25:20;;;;;;;;;;;;;;;15.58;64.49;93965.34;5043883;28;4112;-61
2024/01/18 13:27:53;;;;;;;;;;;;;;;15.37;65.22;93963.84;5045027;28;1698;-62
2024/01/18 13:30:25;;;;;;;;;;;;;;;15.34;65.66;93958.91;5044118;28;1481;-63
2024/01/18 13:32:57;;;;;;;;;;;;;;;15.23;66.22;93972.03;5043017;28;1693;-61
2024/01/18 13:35:29;;;;;;;;;;;;;;;15.19;66.89;93978.06;5043422;28;1668;-61
2024/01/18 13:38:01;;;;;;;;;;;;;;;15.17;66.96;93978.28;5043546;28;1484;-60